createdAt,value
2023-05-13T00:02:08.198Z,4.35
2023-05-13T00:04:35.140Z,4.60
2023-05-13T00:07:01.992Z,4.38
2023-05-13T00:09:28.713Z,4.30
2023-05-13T00:11:55.360Z,4.80
2023-05-13T00:14:22.069Z,4.20
2023-05-13T00:16:48.658Z,4.55
2023-05-13T00:19:15.315Z,4.55
2023-05-13T00:21:42.100Z,4.53
2023-05-13T00:24:08.775Z,4.60
2023-05-13T00:26:35.401Z,4.60
2023-05-13T00:29:02.085Z,4.53
2023-05-13T00:31:28.835Z,4.70
2023-05-13T00:33:55.568Z,4.80
2023-05-13T00:36:22.218Z,4.70
2023-05-13T00:38:48.902Z,4.60
2023-05-13T00:41:16.548Z,4.97
2023-05-13T00:43:43.167Z,4.80
2023-05-13T00:46:10.111Z,4.70
2023-05-13T00:48:36.797Z,4.80
2023-05-13T00:51:03.427Z,4.60
2023-05-13T00:53:32.868Z,4.60
2023-05-13T00:55:59.747Z,4.85
2023-05-13T00:58:26.333Z,4.68
2023-05-13T01:01:23.198Z,4.63
2023-05-13T01:04:25.963Z,4.70
2023-05-13T01:07:34.170Z,5.10
2023-05-13T01:10:06.053Z,4.72
2023-05-13T01:12:35.365Z,4.68
2023-05-13T01:15:18.698Z,5.03
2023-05-13T01:18:07.189Z,5.20
2023-05-13T01:20:34.213Z,4.65
2023-05-13T01:23:00.969Z,5.68
2023-05-13T01:25:28.283Z,5.47
2023-05-13T01:27:55.259Z,5.43
2023-05-13T01:30:23.743Z,5.07
2023-05-13T01:32:51.766Z,5.80
2023-05-13T01:35:19.587Z,6.05
2023-05-13T01:37:47.418Z,5.60
2023-05-13T01:40:30.536Z,5.63
2023-05-13T01:43:00.693Z,5.75
2023-05-13T01:45:29.741Z,6.35
2023-05-13T01:47:56.826Z,6.28
2023-05-13T01:50:24.711Z,6.00
2023-05-13T01:52:51.739Z,6.07
2023-05-13T01:55:18.979Z,6.50
2023-05-13T01:57:48.263Z,6.30
2023-05-13T02:00:15.640Z,6.35
2023-05-13T02:02:42.377Z,5.85
2023-05-13T02:05:09.399Z,6.55
2023-05-13T02:07:37.136Z,6.32
2023-05-13T02:10:04.249Z,6.18
2023-05-13T02:12:32.371Z,5.90
2023-05-13T02:14:59.070Z,5.47
2023-05-13T02:17:26.004Z,5.50
2023-05-13T02:19:54.022Z,6.50
2023-05-13T02:22:20.660Z,6.80
2023-05-13T02:24:47.267Z,6.63
2023-05-13T02:27:16.450Z,6.82
2023-05-13T02:29:43.140Z,7.20
2023-05-13T02:32:10.542Z,6.13
2023-05-13T02:34:37.586Z,7.07
2023-05-13T02:37:05.895Z,7.10
2023-05-13T02:39:38.043Z,7.45
2023-05-13T02:42:05.197Z,8.38
2023-05-13T02:44:32.687Z,9.00
2023-05-13T02:47:00.862Z,9.35
2023-05-13T02:49:27.915Z,9.75
2023-05-13T02:51:55.193Z,9.27
2023-05-13T02:54:28.617Z,9.15
2023-05-13T02:56:55.372Z,8.07
2023-05-13T02:59:22.288Z,9.43
2023-05-13T03:01:49.268Z,8.90
2023-05-13T03:04:16.257Z,9.18
2023-05-13T03:06:42.988Z,10.00
2023-05-13T03:09:09.606Z,11.32
2023-05-13T03:11:36.204Z,11.80
2023-05-13T03:14:02.892Z,12.00
2023-05-13T03:16:29.564Z,11.50
2023-05-13T03:18:57.132Z,11.25
2023-05-13T03:21:23.772Z,11.10
2023-05-13T03:23:50.568Z,11.23
2023-05-13T03:26:20.010Z,11.30
2023-05-13T03:28:46.797Z,11.80
2023-05-13T03:31:13.766Z,10.98
2023-05-13T03:33:40.637Z,10.45
2023-05-13T03:36:07.412Z,9.93
2023-05-13T03:38:34.078Z,9.80
2023-05-13T03:41:00.765Z,9.60
2023-05-13T03:43:27.961Z,9.95
2023-05-13T03:45:59.284Z,9.70
2023-05-13T03:48:26.743Z,9.38
2023-05-13T03:50:55.653Z,9.38
2023-05-13T03:53:22.782Z,9.20
2023-05-13T03:55:49.830Z,8.75
2023-05-13T03:58:17.154Z,9.20
2023-05-13T04:00:46.690Z,8.90
2023-05-13T04:03:16.105Z,9.50
2023-05-13T04:05:44.754Z,9.23
2023-05-13T04:08:12.349Z,9.95
2023-05-13T04:10:39.175Z,10.50
2023-05-13T04:13:05.746Z,10.48
2023-05-13T04:15:32.425Z,10.07
2023-05-13T04:17:59.308Z,8.98
2023-05-13T04:20:26.524Z,8.80
2023-05-13T04:22:55.125Z,8.40
2023-05-13T04:25:21.856Z,8.45
2023-05-13T04:27:48.503Z,7.88
2023-05-13T04:30:23.083Z,8.65
2023-05-13T04:32:50.263Z,8.40
2023-05-13T04:35:17.157Z,7.57
2023-05-13T04:37:46.565Z,7.60
2023-05-13T04:40:16.064Z,7.85
2023-05-13T04:42:42.679Z,8.05
2023-05-13T04:45:10.288Z,7.80
2023-05-13T04:47:38.092Z,7.63
2023-05-13T04:50:06.743Z,7.80
2023-05-13T04:52:34.404Z,7.22
2023-05-13T04:55:01.132Z,7.57
2023-05-13T04:57:28.933Z,8.18
2023-05-13T04:59:56.585Z,8.07
2023-05-13T05:02:23.501Z,8.38
2023-05-13T05:04:50.294Z,8.05
2023-05-13T05:07:17.697Z,8.07
2023-05-13T05:09:44.399Z,7.65
2023-05-13T05:12:11.429Z,7.43
2023-05-13T05:14:40.894Z,7.15
2023-05-13T05:17:07.957Z,7.28
2023-05-13T05:19:35.109Z,7.03
2023-05-13T05:22:02.623Z,7.22
2023-05-13T05:24:30.319Z,6.60
2023-05-13T05:26:57.029Z,6.03
2023-05-13T05:29:24.363Z,5.57
2023-05-13T05:31:51.176Z,6.30
2023-05-13T05:34:18.002Z,6.65
2023-05-13T05:36:44.690Z,6.75
2023-05-13T05:39:12.851Z,5.57
2023-05-13T05:41:39.504Z,6.82
2023-05-13T05:44:06.568Z,5.95
2023-05-13T05:46:33.841Z,5.63
2023-05-13T05:49:03.418Z,5.63
2023-05-13T05:51:32.295Z,4.70
2023-05-13T05:54:02.595Z,5.07
2023-05-13T05:56:29.590Z,4.85
2023-05-13T05:58:56.571Z,4.40
2023-05-13T06:01:23.303Z,4.70
2023-05-13T06:03:53.022Z,3.92
2023-05-13T06:06:21.331Z,4.75
2023-05-13T06:08:47.988Z,4.38
2023-05-13T06:11:14.672Z,4.25
2023-05-13T06:13:44.143Z,4.03
2023-05-13T06:16:10.894Z,3.75
2023-05-13T06:18:38.938Z,3.85
2023-05-13T06:21:05.613Z,3.83
2023-05-13T06:23:32.210Z,4.00
2023-05-13T06:25:59.916Z,3.90
2023-05-13T06:28:26.876Z,3.63
2023-05-13T06:30:54.373Z,4.00
2023-05-13T06:33:21.080Z,3.70
2023-05-13T06:35:49.659Z,3.90
2023-05-13T06:40:45.848Z,3.88
2023-05-13T06:43:16.218Z,3.60
2023-05-13T06:45:48.788Z,3.70
2023-05-13T06:48:16.048Z,3.42
2023-05-13T06:50:42.851Z,2.95
2023-05-13T06:53:11.702Z,2.85
2023-05-13T06:55:41.482Z,2.92
2023-05-13T06:58:08.884Z,3.20
2023-05-13T07:00:39.936Z,3.15
2023-05-13T07:03:07.197Z,3.10
2023-05-13T07:05:34.488Z,2.80
2023-05-13T07:08:06.476Z,2.78
2023-05-13T07:10:34.116Z,3.08
2023-05-13T07:13:02.010Z,3.20
2023-05-13T07:15:28.749Z,3.28
2023-05-13T07:17:55.537Z,2.80
2023-05-13T07:20:23.365Z,2.95
2023-05-13T07:22:50.635Z,2.88
2023-05-13T07:25:18.029Z,2.80
2023-05-13T07:27:44.991Z,3.05
2023-05-13T07:30:12.608Z,2.78
2023-05-13T07:32:39.936Z,2.67
2023-05-13T07:35:08.303Z,2.55
2023-05-13T07:37:35.351Z,2.80
2023-05-13T07:40:02.065Z,3.30
2023-05-13T07:42:29.987Z,2.47
2023-05-13T07:44:56.779Z,2.60
2023-05-13T07:47:23.555Z,2.58
2023-05-13T07:49:50.319Z,2.60
2023-05-13T07:52:17.044Z,2.50
2023-05-13T07:54:43.764Z,2.60
2023-05-13T07:57:10.421Z,2.50
2023-05-13T07:59:37.092Z,2.85
2023-05-13T08:02:03.746Z,2.25
2023-05-13T08:04:30.521Z,2.20
2023-05-13T08:06:57.214Z,2.72
2023-05-13T08:09:24.450Z,2.53
2023-05-13T08:11:51.244Z,2.90
2023-05-13T08:14:18.127Z,2.85
2023-05-13T08:16:45.077Z,3.15
2023-05-13T08:19:12.764Z,2.60
2023-05-13T08:21:39.478Z,2.70
2023-05-13T08:24:06.536Z,2.63
2023-05-13T08:26:33.768Z,2.22
2023-05-13T08:29:00.408Z,2.45
2023-05-13T08:31:27.099Z,2.63
2023-05-13T08:33:54.107Z,2.53
2023-05-13T08:36:22.827Z,2.80
2023-05-13T08:38:49.626Z,2.60
2023-05-13T08:41:16.633Z,2.58
2023-05-13T08:43:43.940Z,2.85
2023-05-13T08:46:11.840Z,2.70
2023-05-13T08:48:39.464Z,2.70
2023-05-13T08:51:06.538Z,2.38
2023-05-13T08:53:34.582Z,2.47
2023-05-13T08:56:01.349Z,2.13
2023-05-13T08:58:28.177Z,2.42
2023-05-13T09:00:54.952Z,2.50
2023-05-13T09:03:22.000Z,2.50
2023-05-13T09:05:48.622Z,2.72
2023-05-13T09:08:15.304Z,2.80
2023-05-13T09:10:42.262Z,2.85
2023-05-13T09:13:08.912Z,2.78
2023-05-13T09:15:35.577Z,2.67
2023-05-13T09:18:04.663Z,2.53
2023-05-13T09:20:32.589Z,2.60
2023-05-13T09:23:05.415Z,2.70
2023-05-13T09:25:32.734Z,2.55
2023-05-13T09:28:05.159Z,2.83
2023-05-13T09:30:40.607Z,2.60
2023-05-13T09:33:07.909Z,2.90
2023-05-13T09:35:39.680Z,2.70
2023-05-13T09:38:19.594Z,2.42
2023-05-13T09:40:57.424Z,2.58
2023-05-13T09:43:25.891Z,2.53
2023-05-13T09:45:56.827Z,2.28
2023-05-13T09:48:25.968Z,2.80
2023-05-13T09:50:53.538Z,2.97
2023-05-13T09:53:23.361Z,2.65
2023-05-13T09:55:52.589Z,2.45
2023-05-13T09:58:22.746Z,2.65
2023-05-13T10:00:49.442Z,2.80
2023-05-13T10:03:16.337Z,2.88
2023-05-13T10:05:43.369Z,2.63
2023-05-13T10:08:15.196Z,2.65
2023-05-13T10:10:43.282Z,3.00
2023-05-13T10:13:10.959Z,3.15
2023-05-13T10:15:43.122Z,2.80
2023-05-13T10:18:10.076Z,2.75
2023-05-13T10:20:36.793Z,2.90
2023-05-13T10:23:04.340Z,2.65
2023-05-13T10:25:31.641Z,3.03
2023-05-13T10:27:58.530Z,2.80
2023-05-13T10:30:27.468Z,2.80
2023-05-13T10:32:54.806Z,3.22
2023-05-13T10:35:22.341Z,2.97
2023-05-13T10:38:01.617Z,2.80
2023-05-13T10:40:43.294Z,3.20
2023-05-13T10:43:20.955Z,2.90
2023-05-13T10:45:49.486Z,3.22
2023-05-13T10:48:17.144Z,2.75
2023-05-13T10:50:54.782Z,2.60
2023-05-13T10:53:26.042Z,2.70
2023-05-13T10:55:54.427Z,2.80
2023-05-13T10:58:22.498Z,2.42
2023-05-13T11:00:50.826Z,2.90
2023-05-13T11:03:20.634Z,2.90
2023-05-13T11:05:59.248Z,3.10
2023-05-13T11:08:48.956Z,3.08
2023-05-13T11:11:19.069Z,3.08
2023-05-13T11:13:46.233Z,3.05
2023-05-13T11:16:14.695Z,2.55
2023-05-13T11:18:41.724Z,3.35
2023-05-13T11:21:08.835Z,2.90
2023-05-13T11:23:51.503Z,3.53
2023-05-13T11:26:18.893Z,3.20
2023-05-13T11:29:07.088Z,3.22
2023-05-13T11:31:49.836Z,3.55
2023-05-13T11:34:18.138Z,3.22
2023-05-13T11:36:46.737Z,2.72
2023-05-13T11:39:18.859Z,3.03
2023-05-13T11:41:52.772Z,3.08
2023-05-13T11:44:21.554Z,2.92
2023-05-13T11:46:59.128Z,3.08
2023-05-13T11:49:37.508Z,3.40
2023-05-13T11:52:15.919Z,3.00
2023-05-13T11:54:52.268Z,2.97
2023-05-13T11:57:28.780Z,3.20
2023-05-13T12:00:06.582Z,3.08
2023-05-13T12:02:35.400Z,3.13
2023-05-13T12:05:09.725Z,3.00
2023-05-13T12:07:37.969Z,3.20
2023-05-13T12:10:06.414Z,2.92
2023-05-13T12:12:37.050Z,3.03
2023-05-13T12:15:08.040Z,2.90
2023-05-13T12:17:35.169Z,2.95
2023-05-13T12:20:08.129Z,3.00
2023-05-13T12:22:35.375Z,2.88
2023-05-13T12:25:37.944Z,2.80
2023-05-13T12:28:25.217Z,2.90
2023-05-13T12:30:51.836Z,2.80
2023-05-13T12:33:21.072Z,2.83
2023-05-13T12:35:50.241Z,2.65
2023-05-13T12:38:19.222Z,2.78
2023-05-13T12:40:47.002Z,2.67
2023-05-13T12:43:14.192Z,2.50
2023-05-13T12:45:44.930Z,2.40
2023-05-13T12:48:12.535Z,2.63
2023-05-13T12:50:39.190Z,2.35
2023-05-13T12:53:06.181Z,2.65
2023-05-13T12:55:33.036Z,3.10
2023-05-13T12:58:01.616Z,2.60
2023-05-13T13:00:29.498Z,2.50
2023-05-13T13:02:57.078Z,2.60
2023-05-13T13:05:25.635Z,2.75
2023-05-13T13:07:52.285Z,2.35
2023-05-13T13:10:19.086Z,2.92
2023-05-13T13:12:45.800Z,2.78
2023-05-13T13:15:12.701Z,2.90
2023-05-13T13:17:39.465Z,2.75
2023-05-13T13:20:07.271Z,3.10
2023-05-13T13:22:37.023Z,3.13
2023-05-13T13:25:07.364Z,2.80
2023-05-13T13:30:02.224Z,2.60
2023-05-13T13:32:29.139Z,2.60
2023-05-13T13:34:57.704Z,2.58
2023-05-13T13:37:24.325Z,2.47
2023-05-13T13:39:51.031Z,2.40
2023-05-13T13:42:17.612Z,2.70
2023-05-13T13:44:44.311Z,2.88
2023-05-13T13:47:10.961Z,2.63
2023-05-13T13:49:37.642Z,2.50
2023-05-13T13:52:04.597Z,2.78
2023-05-13T13:54:31.427Z,3.00
2023-05-13T13:56:58.033Z,2.38
2023-05-13T13:59:24.672Z,2.75
2023-05-13T14:01:51.473Z,2.80
2023-05-13T14:04:23.616Z,2.70
2023-05-13T14:06:51.192Z,2.90
2023-05-13T14:09:17.813Z,2.70
2023-05-13T14:11:44.513Z,2.38
2023-05-13T14:14:11.129Z,2.60
2023-05-13T14:16:37.738Z,2.63
2023-05-13T14:19:04.386Z,2.60
2023-05-13T14:21:32.343Z,2.55
2023-05-13T14:23:59.130Z,2.38
2023-05-13T14:26:26.169Z,2.75
2023-05-13T14:28:53.620Z,2.70
2023-05-13T14:31:20.872Z,2.88
2023-05-13T14:33:47.804Z,2.83
2023-05-13T14:36:16.202Z,2.92
2023-05-13T14:38:45.835Z,2.97
2023-05-13T14:41:12.653Z,2.72
2023-05-13T14:43:39.224Z,2.60
2023-05-13T14:46:05.884Z,2.50
2023-05-13T14:48:32.705Z,2.38
2023-05-13T14:50:59.476Z,2.35
2023-05-13T14:53:26.190Z,2.90
2023-05-13T14:55:53.195Z,2.60
2023-05-13T14:58:19.931Z,2.70
2023-05-13T15:00:46.649Z,2.30
2023-05-13T15:03:13.430Z,2.60
2023-05-13T15:05:43.297Z,2.33
2023-05-13T15:08:10.738Z,2.10
2023-05-13T15:10:37.398Z,1.75
2023-05-13T15:13:04.036Z,1.95
2023-05-13T15:15:30.735Z,1.80
2023-05-13T15:17:57.378Z,2.15
2023-05-13T15:20:24.310Z,1.95
2023-05-13T15:22:51.050Z,2.15
2023-05-13T15:25:17.897Z,2.30
2023-05-13T15:27:44.831Z,2.38
2023-05-13T15:30:11.708Z,2.40
2023-05-13T15:32:38.641Z,2.33
2023-05-13T15:35:05.768Z,2.42
2023-05-13T15:37:32.498Z,2.40
2023-05-13T15:39:59.302Z,2.58
2023-05-13T15:42:26.650Z,2.10
2023-05-13T15:44:53.389Z,2.28
2023-05-13T15:47:20.253Z,2.70
2023-05-13T15:49:47.001Z,2.40
2023-05-13T15:52:14.620Z,2.05
2023-05-13T15:54:41.442Z,2.40
2023-05-13T15:57:09.015Z,2.50
2023-05-13T15:59:35.834Z,2.40
2023-05-13T16:02:02.741Z,3.15
2023-05-13T16:04:29.869Z,2.30
2023-05-13T16:06:56.903Z,2.20
2023-05-13T16:09:23.554Z,1.92
2023-05-13T16:11:50.188Z,2.10
2023-05-13T16:14:19.337Z,2.40
2023-05-13T16:16:46.206Z,2.38
2023-05-13T16:19:13.143Z,2.55
2023-05-13T16:21:40.683Z,2.30
2023-05-13T16:24:07.456Z,2.45
2023-05-13T16:26:34.583Z,2.38
2023-05-13T16:29:01.234Z,2.50
2023-05-13T16:31:28.074Z,2.70
2023-05-13T16:33:54.783Z,2.55
2023-05-13T16:36:21.599Z,2.58
2023-05-13T16:38:48.421Z,2.42
2023-05-13T16:41:15.037Z,2.20
2023-05-13T16:43:41.636Z,2.38
2023-05-13T16:46:08.311Z,2.20
2023-05-13T16:48:34.996Z,2.80
2023-05-13T16:51:01.615Z,2.83
2023-05-13T16:53:28.304Z,2.70
2023-05-13T16:55:54.984Z,2.97
2023-05-13T16:58:21.651Z,2.80
2023-05-13T17:00:48.410Z,2.65
2023-05-13T17:03:15.221Z,2.50
2023-05-13T17:05:41.983Z,2.70
2023-05-13T17:08:08.645Z,2.25
2023-05-13T17:10:35.255Z,2.65
2023-05-13T17:13:02.077Z,2.30
2023-05-13T17:15:28.771Z,2.72
2023-05-13T17:17:55.491Z,2.25
2023-05-13T17:20:22.419Z,2.30
2023-05-13T17:22:49.777Z,2.30
2023-05-13T17:25:16.494Z,2.53
2023-05-13T17:27:43.175Z,2.08
2023-05-13T17:30:10.246Z,2.40
2023-05-13T17:32:37.053Z,2.20
2023-05-13T17:35:04.772Z,3.00
2023-05-13T17:37:31.623Z,2.17
2023-05-13T17:40:00.674Z,2.10
2023-05-13T17:42:28.908Z,2.22
2023-05-13T17:44:55.813Z,2.08
2023-05-13T17:47:22.809Z,2.20
2023-05-13T17:49:49.622Z,2.53
2023-05-13T17:52:16.393Z,1.80
2023-05-13T17:54:42.982Z,2.55
2023-05-13T17:57:11.265Z,2.35
2023-05-13T17:59:39.015Z,2.10
2023-05-13T18:02:05.880Z,2.17
2023-05-13T18:04:32.567Z,2.53
2023-05-13T18:06:59.189Z,3.50
2023-05-13T18:09:25.921Z,4.10
2023-05-13T18:11:52.739Z,2.35
2023-05-13T18:14:19.483Z,2.25
2023-05-13T18:16:46.183Z,2.28
2023-05-13T18:19:12.992Z,2.33
2023-05-13T18:21:39.688Z,2.10
2023-05-13T18:24:06.887Z,2.20
2023-05-13T18:26:33.862Z,2.60
2023-05-13T18:29:00.629Z,2.85
2023-05-13T18:31:27.423Z,2.80
2023-05-13T18:33:54.220Z,2.38
2023-05-13T18:36:20.900Z,2.90
2023-05-13T18:38:47.985Z,2.47
2023-05-13T18:41:14.960Z,3.55
2023-05-13T18:43:41.605Z,2.60
2023-05-13T18:46:08.760Z,2.63
2023-05-13T18:48:36.313Z,2.40
2023-05-13T18:51:03.023Z,2.70
2023-05-13T18:53:29.928Z,2.85
2023-05-13T18:55:56.595Z,2.63
2023-05-13T18:58:23.380Z,2.90
2023-05-13T19:00:50.124Z,2.38
2023-05-13T19:03:16.979Z,2.72
2023-05-13T19:05:44.612Z,3.00
2023-05-13T19:08:11.207Z,2.88
2023-05-13T19:10:40.123Z,3.08
2023-05-13T19:13:07.495Z,3.67
2023-05-13T19:15:34.405Z,3.17
2023-05-13T19:18:01.322Z,3.72
2023-05-13T19:20:29.453Z,4.00
2023-05-13T19:22:56.380Z,3.72
2023-05-13T19:25:23.020Z,3.45
2023-05-13T19:27:49.843Z,3.47
2023-05-13T19:30:16.542Z,3.78
2023-05-13T19:32:43.933Z,3.20
2023-05-13T19:35:11.494Z,4.00
2023-05-13T19:37:38.132Z,3.50
2023-05-13T19:40:05.624Z,3.65
2023-05-13T19:42:32.354Z,3.78
2023-05-13T19:44:58.987Z,3.30
2023-05-13T19:47:26.791Z,3.13
2023-05-13T19:49:53.833Z,3.30
2023-05-13T19:52:20.831Z,3.17
2023-05-13T19:54:47.513Z,3.60
2023-05-13T19:57:14.231Z,4.53
2023-05-13T19:59:41.683Z,4.90
2023-05-13T20:02:09.133Z,4.13
2023-05-13T20:04:36.235Z,4.47
2023-05-13T20:07:04.049Z,4.07
2023-05-13T20:09:30.940Z,3.85
2023-05-13T20:11:58.015Z,5.38
2023-05-13T20:14:27.731Z,4.10
2023-05-13T20:16:54.570Z,3.65
2023-05-13T20:19:21.314Z,3.30
2023-05-13T20:21:48.046Z,3.70
2023-05-13T20:24:14.713Z,3.45
2023-05-13T20:26:41.441Z,3.25
2023-05-13T20:29:08.391Z,3.53
2023-05-13T20:31:35.109Z,3.80
2023-05-13T20:34:03.357Z,3.90
2023-05-13T20:36:30.024Z,3.65
2023-05-13T20:38:56.789Z,3.70
2023-05-13T20:41:23.784Z,3.70
2023-05-13T20:43:50.626Z,4.00
2023-05-13T20:46:17.485Z,3.67
2023-05-13T20:48:44.257Z,4.22
2023-05-13T20:51:11.393Z,4.20
2023-05-13T20:53:38.064Z,4.40
2023-05-13T20:56:04.855Z,4.90
2023-05-13T20:58:31.545Z,5.30
2023-05-13T21:00:58.210Z,4.15
2023-05-13T21:03:25.309Z,4.57
2023-05-13T21:05:52.035Z,3.60
2023-05-13T21:08:18.807Z,3.60
2023-05-13T21:10:45.591Z,4.00
2023-05-13T21:13:12.347Z,4.30
2023-05-13T21:15:39.243Z,3.85
2023-05-13T21:18:06.265Z,3.58
2023-05-13T21:20:33.397Z,3.97
2023-05-13T21:23:01.176Z,3.85
2023-05-13T21:25:27.824Z,3.60
2023-05-13T21:27:54.869Z,4.20
2023-05-13T21:30:21.709Z,4.32
2023-05-13T21:32:49.611Z,4.57
2023-05-13T21:35:16.469Z,5.20
2023-05-13T21:37:44.202Z,5.78
2023-05-13T21:40:12.625Z,6.07
2023-05-13T21:42:39.232Z,5.07
2023-05-13T21:45:06.404Z,4.75
2023-05-13T21:47:33.372Z,4.90
2023-05-13T21:49:59.937Z,5.28
2023-05-13T21:52:26.554Z,5.32
2023-05-13T21:54:53.149Z,5.20
2023-05-13T21:57:19.786Z,5.03
2023-05-13T21:59:46.445Z,5.32
2023-05-13T22:02:13.146Z,5.78
2023-05-13T22:04:39.781Z,6.03
2023-05-13T22:07:06.680Z,6.10
2023-05-13T22:09:33.281Z,5.38
2023-05-13T22:11:59.880Z,5.97
2023-05-13T22:14:26.728Z,4.95
2023-05-13T22:17:07.535Z,4.15
2023-05-13T22:19:36.751Z,4.40
2023-05-13T22:22:03.516Z,4.90
2023-05-13T22:24:30.745Z,4.53
2023-05-13T22:26:58.620Z,4.70
2023-05-13T22:29:25.505Z,4.60
2023-05-13T22:31:52.472Z,5.30
2023-05-13T22:34:19.464Z,5.20
2023-05-13T22:36:46.065Z,5.80
2023-05-13T22:39:13.385Z,6.22
2023-05-13T22:41:40.109Z,6.75
2023-05-13T22:44:06.686Z,6.60
2023-05-13T22:46:33.300Z,6.38
2023-05-13T22:48:59.961Z,6.38
2023-05-13T22:51:26.891Z,6.47
2023-05-13T22:53:53.597Z,6.78
2023-05-13T22:56:21.528Z,6.43
2023-05-13T22:58:48.152Z,7.13
2023-05-13T23:01:15.330Z,8.32
2023-05-13T23:03:41.905Z,9.23
2023-05-13T23:06:10.159Z,7.32
2023-05-13T23:08:37.298Z,7.40
2023-05-13T23:11:04.229Z,7.32
2023-05-13T23:13:30.938Z,6.95
2023-05-13T23:15:57.676Z,6.38
2023-05-13T23:18:24.879Z,5.80
2023-05-13T23:20:58.647Z,5.90
2023-05-13T23:23:25.348Z,5.72
2023-05-13T23:25:51.938Z,5.60
2023-05-13T23:28:18.664Z,5.90
2023-05-13T23:30:45.296Z,8.65
2023-05-13T23:33:11.953Z,5.30
2023-05-13T23:35:38.632Z,7.15
2023-05-13T23:38:05.270Z,8.93
2023-05-13T23:40:31.902Z,8.23
2023-05-13T23:42:58.627Z,10.20
2023-05-13T23:45:25.324Z,9.50
2023-05-13T23:47:52.075Z,7.97
2023-05-13T23:50:18.837Z,9.57
2023-05-13T23:52:45.475Z,9.05
2023-05-13T23:55:12.128Z,7.28
2023-05-13T23:57:38.750Z,6.15
